createdAt,value
2019-01-12T00:01:10.826Z,10.90
2019-01-12T00:03:40.362Z,10.80
2019-01-12T00:06:10.183Z,11.40
2019-01-12T00:08:39.916Z,10.80
2019-01-12T00:11:09.732Z,10.80
2019-01-12T00:13:39.454Z,10.70
2019-01-12T00:16:09.288Z,11.20
2019-01-12T00:18:39.062Z,10.70
2019-01-12T00:21:08.846Z,10.60
2019-01-12T00:23:38.356Z,10.70
2019-01-12T00:26:08.313Z,10.70
2019-01-12T00:28:39.796Z,10.60
2019-01-12T00:31:09.812Z,10.70
2019-01-12T00:33:39.637Z,10.60
2019-01-12T00:36:09.463Z,10.70
2019-01-12T00:38:39.099Z,10.60
2019-01-12T00:41:08.817Z,10.20
2019-01-12T00:43:38.750Z,10.50
2019-01-12T00:46:09.684Z,11.00
2019-01-12T00:48:39.423Z,10.50
2019-01-12T00:51:09.048Z,10.50
2019-01-12T00:53:38.777Z,10.30
2019-01-12T00:56:08.608Z,10.30
2019-01-12T00:58:39.919Z,10.50
2019-01-12T01:01:11.276Z,10.10
2019-01-12T01:03:41.979Z,10.50
2019-01-12T01:06:11.814Z,10.30
2019-01-12T01:08:41.857Z,10.50
2019-01-12T01:11:11.694Z,10.30
2019-01-12T01:13:41.515Z,10.40
2019-01-12T01:16:13.349Z,10.40
2019-01-12T01:18:42.707Z,10.30
2019-01-12T01:21:12.529Z,10.30
2019-01-12T01:23:42.456Z,10.30
2019-01-12T01:26:12.305Z,10.30
2019-01-12T01:28:42.126Z,10.30
2019-01-12T01:31:11.645Z,10.30
2019-01-12T01:33:41.460Z,10.40
2019-01-12T01:36:11.413Z,10.20
2019-01-12T01:38:41.128Z,10.20
2019-01-12T01:41:10.959Z,10.20
2019-01-12T01:43:40.792Z,10.10
2019-01-12T01:46:10.728Z,10.20
2019-01-12T01:48:40.553Z,10.20
2019-01-12T01:51:10.400Z,10.10
2019-01-12T01:53:40.204Z,10.10
2019-01-12T01:56:10.037Z,10.10
2019-01-12T01:58:39.652Z,10.30
2019-01-12T02:01:09.610Z,10.80
2019-01-12T02:03:39.523Z,10.00
2019-01-12T02:06:09.372Z,10.00
2019-01-12T02:08:39.182Z,10.40
2019-01-12T02:11:09.015Z,10.30
2019-01-12T02:13:38.844Z,10.40
2019-01-12T02:16:08.693Z,11.10
2019-01-12T02:18:38.505Z,10.40
2019-01-12T02:21:08.368Z,10.30
2019-01-12T02:23:38.056Z,10.80
2019-01-12T02:26:07.800Z,10.60
2019-01-12T02:28:37.649Z,10.50
2019-01-12T02:31:07.569Z,10.40
2019-01-12T02:33:37.489Z,10.30
2019-01-12T02:36:07.516Z,10.40
2019-01-12T02:38:37.329Z,10.30
2019-01-12T02:41:07.162Z,10.30
2019-01-12T02:43:36.893Z,10.30
2019-01-12T02:46:06.745Z,10.10
2019-01-12T02:48:36.662Z,10.30
2019-01-12T02:51:06.471Z,10.20
2019-01-12T02:53:36.211Z,10.20
2019-01-12T02:56:05.928Z,10.10
2019-01-12T02:58:35.880Z,10.20
2019-01-12T03:01:05.791Z,10.10
2019-01-12T03:03:35.326Z,10.20
2019-01-12T03:06:05.160Z,10.10
2019-01-12T03:08:35.081Z,9.60
2019-01-12T03:11:04.954Z,10.10
2019-01-12T03:13:34.856Z,10.20
2019-01-12T03:16:04.787Z,10.10
2019-01-12T03:18:34.722Z,10.10
2019-01-12T03:21:04.365Z,10.00
2019-01-12T03:23:34.159Z,10.00
2019-01-12T03:26:04.112Z,9.90
2019-01-12T03:28:33.811Z,9.80
2019-01-12T03:31:03.684Z,9.80
2019-01-12T03:33:33.572Z,9.80
2019-01-12T03:36:03.424Z,9.80
2019-01-12T03:38:33.233Z,9.70
2019-01-12T03:41:03.293Z,9.70
2019-01-12T03:43:34.566Z,9.70
2019-01-12T03:46:04.278Z,9.70
2019-01-12T03:48:33.984Z,9.70
2019-01-12T03:51:03.732Z,9.70
2019-01-12T03:53:33.449Z,9.70
2019-01-12T03:56:03.086Z,9.70
2019-01-12T03:58:32.902Z,9.70
2019-01-12T04:01:02.841Z,9.70
2019-01-12T04:03:32.772Z,9.50
2019-01-12T04:06:02.612Z,9.60
2019-01-12T04:08:32.421Z,10.30
2019-01-12T04:11:02.359Z,9.70
2019-01-12T04:13:32.219Z,9.70
2019-01-12T04:16:01.816Z,9.60
2019-01-12T04:18:31.746Z,9.60
2019-01-12T04:21:01.669Z,9.80
2019-01-12T04:23:31.512Z,9.60
2019-01-12T04:26:01.343Z,9.60
2019-01-12T04:28:30.882Z,9.30
2019-01-12T04:31:00.783Z,9.50
2019-01-12T04:33:30.444Z,9.40
2019-01-12T04:36:00.139Z,9.50
2019-01-12T04:38:30.080Z,9.40
2019-01-12T04:40:59.897Z,9.30
2019-01-12T04:43:29.838Z,9.60
2019-01-12T04:45:59.548Z,9.80
2019-01-12T04:48:29.304Z,9.50
2019-01-12T04:50:59.003Z,9.40
2019-01-12T04:53:28.639Z,9.50
2019-01-12T04:55:58.453Z,9.40
2019-01-12T04:58:28.268Z,9.50
2019-01-12T05:01:01.050Z,9.40
2019-01-12T05:03:30.504Z,9.40
2019-01-12T05:06:00.254Z,9.40
2019-01-12T05:08:29.956Z,9.40
2019-01-12T05:10:59.685Z,9.40
2019-01-12T05:13:29.543Z,9.40
2019-01-12T05:15:59.242Z,9.40
2019-01-12T05:18:28.980Z,9.40
2019-01-12T05:20:58.806Z,9.30
2019-01-12T05:23:28.740Z,9.30
2019-01-12T05:25:58.569Z,9.30
2019-01-12T05:28:28.097Z,9.40
2019-01-12T05:30:57.935Z,9.30
2019-01-12T05:33:27.847Z,9.30
2019-01-12T05:35:59.039Z,9.40
2019-01-12T05:38:28.728Z,9.40
2019-01-12T05:40:58.560Z,9.90
2019-01-12T05:43:28.290Z,9.30
2019-01-12T05:45:58.026Z,9.30
2019-01-12T05:48:27.865Z,9.60
2019-01-12T05:50:57.664Z,9.30
2019-01-12T05:53:27.320Z,9.40
2019-01-12T05:55:59.129Z,9.30
2019-01-12T05:58:28.799Z,9.40
2019-01-12T06:01:00.065Z,9.30
2019-01-12T06:03:31.707Z,9.20
2019-01-12T06:06:01.557Z,9.30
2019-01-12T06:08:31.218Z,9.30
2019-01-12T06:11:01.118Z,9.30
2019-01-12T06:13:30.963Z,9.30
2019-01-12T06:16:00.783Z,9.30
2019-01-12T06:18:30.419Z,9.20
2019-01-12T06:21:00.125Z,9.30
2019-01-12T06:23:29.959Z,9.30
2019-01-12T06:26:03.867Z,9.20
2019-01-12T06:28:31.146Z,9.20
2019-01-12T06:31:00.998Z,9.20
2019-01-12T06:33:30.929Z,9.20
2019-01-12T06:36:00.738Z,9.20
2019-01-12T06:38:30.485Z,9.30
2019-01-12T06:41:00.443Z,9.30
2019-01-12T06:43:30.238Z,9.40
2019-01-12T06:46:00.061Z,9.30
2019-01-12T06:48:29.889Z,9.20
2019-01-12T06:50:59.711Z,9.10
2019-01-12T06:53:29.567Z,9.00
2019-01-12T06:55:59.286Z,9.20
2019-01-12T06:58:29.124Z,9.90
2019-01-12T07:00:58.955Z,10.00
2019-01-12T07:03:28.880Z,10.10
2019-01-12T07:05:58.607Z,10.00
2019-01-12T07:08:28.356Z,10.00
2019-01-12T07:10:58.253Z,9.90
2019-01-12T07:13:27.786Z,9.70
2019-01-12T07:15:57.704Z,8.60
2019-01-12T07:18:27.550Z,8.70
2019-01-12T07:20:58.161Z,9.30
2019-01-12T07:23:28.126Z,9.70
2019-01-12T07:25:58.053Z,9.80
2019-01-12T07:28:27.877Z,9.90
2019-01-12T07:30:57.407Z,11.20
2019-01-12T07:33:27.351Z,10.50
2019-01-12T07:35:57.093Z,10.40
2019-01-12T07:38:26.904Z,11.20
2019-01-12T07:40:58.276Z,11.20
2019-01-12T07:43:28.189Z,10.70
2019-01-12T07:45:58.115Z,10.90
2019-01-12T07:48:28.846Z,10.00
2019-01-12T07:50:58.252Z,9.80
2019-01-12T07:53:28.129Z,10.00
2019-01-12T07:55:57.854Z,10.70
2019-01-12T07:58:27.779Z,10.80
2019-01-12T08:00:57.493Z,10.90
2019-01-12T08:03:27.445Z,11.50
2019-01-12T08:05:57.146Z,11.00
2019-01-12T08:08:26.998Z,11.80
2019-01-12T08:10:56.825Z,12.30
2019-01-12T08:13:26.656Z,12.70
2019-01-12T08:15:56.458Z,13.30
2019-01-12T08:18:26.097Z,13.30
2019-01-12T08:20:58.606Z,14.00
2019-01-12T08:23:28.010Z,13.30
2019-01-12T08:26:00.134Z,13.90
2019-01-12T08:28:30.036Z,13.40
2019-01-12T08:30:59.844Z,13.40
2019-01-12T08:33:29.671Z,12.30
2019-01-12T08:35:59.417Z,13.20
2019-01-12T08:38:29.243Z,13.70
2019-01-12T08:40:58.870Z,13.60
2019-01-12T08:43:28.795Z,13.30
2019-01-12T08:45:59.557Z,13.30
2019-01-12T08:48:29.483Z,13.80
2019-01-12T08:51:01.563Z,13.40
2019-01-12T08:53:31.387Z,13.40
2019-01-12T08:56:01.036Z,13.40
2019-01-12T08:58:30.741Z,13.30
2019-01-12T09:01:00.685Z,13.50
2019-01-12T09:03:30.496Z,12.80
2019-01-12T09:06:00.347Z,13.60
2019-01-12T09:08:30.174Z,13.20
2019-01-12T09:10:59.997Z,13.20
2019-01-12T09:13:29.822Z,13.50
2019-01-12T09:15:59.551Z,13.90
2019-01-12T09:18:29.485Z,13.50
2019-01-12T09:20:59.409Z,13.70
2019-01-12T09:23:29.236Z,13.80
2019-01-12T09:25:59.092Z,13.60
2019-01-12T09:28:28.998Z,13.70
2019-01-12T09:30:58.838Z,13.90
2019-01-12T09:33:28.359Z,14.10
2019-01-12T09:35:58.192Z,14.20
2019-01-12T09:38:28.017Z,14.10
2019-01-12T09:40:57.964Z,15.10
2019-01-12T09:43:27.569Z,14.20
2019-01-12T09:45:57.512Z,15.10
2019-01-12T09:48:27.438Z,15.50
2019-01-12T09:50:57.233Z,17.40
2019-01-12T09:53:26.967Z,17.50
2019-01-12T09:55:56.828Z,18.00
2019-01-12T09:58:26.671Z,17.80
2019-01-12T10:00:56.491Z,18.30
2019-01-12T10:03:26.303Z,11.90
2019-01-12T10:05:56.168Z,9.10
2019-01-12T10:08:26.057Z,9.40
2019-01-12T10:10:55.595Z,8.90
2019-01-12T10:13:25.417Z,12.50
2019-01-12T10:15:55.258Z,13.40
2019-01-12T10:18:24.962Z,13.00
2019-01-12T10:20:54.913Z,12.30
2019-01-12T10:23:24.728Z,12.00
2019-01-12T10:25:54.660Z,11.30
2019-01-12T10:28:25.605Z,11.90
2019-01-12T10:30:55.466Z,11.70
2019-01-12T10:33:25.275Z,11.80
2019-01-12T10:35:55.116Z,12.20
2019-01-12T10:38:24.852Z,13.10
2019-01-12T10:40:54.669Z,12.60
2019-01-12T10:43:27.040Z,12.50
2019-01-12T10:45:56.810Z,12.50
2019-01-12T10:48:27.491Z,12.40
2019-01-12T10:50:57.159Z,12.50
2019-01-12T10:53:27.090Z,12.90
2019-01-12T10:55:56.921Z,12.50
2019-01-12T10:58:26.624Z,12.30
2019-01-12T11:00:56.376Z,12.50
2019-01-12T11:03:28.463Z,12.40
2019-01-12T11:05:58.212Z,12.30
2019-01-12T11:08:28.111Z,12.40
2019-01-12T11:10:58.276Z,12.30
2019-01-12T11:13:27.956Z,12.60
2019-01-12T11:15:57.821Z,12.70
2019-01-12T11:18:27.421Z,12.80
2019-01-12T11:20:57.382Z,13.10
2019-01-12T11:23:27.085Z,13.70
2019-01-12T11:25:57.049Z,13.40
2019-01-12T11:28:26.958Z,14.60
2019-01-12T11:30:56.980Z,14.40
2019-01-12T11:33:26.804Z,14.30
2019-01-12T11:35:56.657Z,14.70
2019-01-12T11:38:26.372Z,14.80
2019-01-12T11:40:56.300Z,14.50
2019-01-12T11:43:26.224Z,14.90
2019-01-12T11:45:56.073Z,14.80
2019-01-12T11:48:25.994Z,14.50
2019-01-12T11:51:05.596Z,15.20
2019-01-12T11:53:35.582Z,15.40
2019-01-12T11:56:05.410Z,15.60
2019-01-12T11:58:35.224Z,15.90
2019-01-12T12:01:05.073Z,15.60
2019-01-12T12:03:34.998Z,16.10
2019-01-12T12:06:05.733Z,16.40
2019-01-12T12:08:35.376Z,16.40
2019-01-12T12:11:05.196Z,16.20
2019-01-12T12:13:35.015Z,16.40
2019-01-12T12:16:04.769Z,16.20
2019-01-12T12:18:34.583Z,16.10
2019-01-12T12:21:06.171Z,16.60
2019-01-12T12:23:35.909Z,10.60
2019-01-12T12:26:05.717Z,12.10
2019-01-12T12:28:35.534Z,15.10
2019-01-12T12:31:05.389Z,15.50
2019-01-12T12:33:35.298Z,15.40
2019-01-12T12:36:05.150Z,15.40
2019-01-12T12:38:34.955Z,15.50
2019-01-12T12:41:04.596Z,15.60
2019-01-12T12:43:34.424Z,15.50
2019-01-12T12:46:04.465Z,15.60
2019-01-12T12:48:34.373Z,15.50
2019-01-12T12:51:04.144Z,15.50
2019-01-12T12:53:34.485Z,15.40
2019-01-12T12:56:04.174Z,15.70
2019-01-12T12:58:33.824Z,15.60
2019-01-12T13:01:03.845Z,15.50
2019-01-12T13:03:33.787Z,14.90
2019-01-12T13:06:03.580Z,15.00
2019-01-12T13:08:33.312Z,14.80
2019-01-12T13:11:03.258Z,15.10
2019-01-12T13:29:50.375Z,14.20
2019-01-12T13:32:20.185Z,12.00
2019-01-12T13:34:49.930Z,13.50
2019-01-12T13:37:19.761Z,14.20
2019-01-12T13:39:49.540Z,14.80
2019-01-12T13:42:19.187Z,15.10
2019-01-12T13:44:50.448Z,15.20
2019-01-12T13:47:20.906Z,15.30
2019-01-12T13:49:50.823Z,15.20
2019-01-12T13:52:32.040Z,15.40
2019-01-12T13:55:12.432Z,16.20
2019-01-12T13:57:47.403Z,15.60
2019-01-12T14:00:25.453Z,15.80
2019-01-12T14:02:55.397Z,15.90
2019-01-12T14:05:25.125Z,15.90
2019-01-12T14:07:56.403Z,15.90
2019-01-12T14:10:26.630Z,15.80
2019-01-12T14:12:56.462Z,16.20
2019-01-12T14:15:26.277Z,16.10
2019-01-12T14:17:56.222Z,16.20
2019-01-12T14:20:30.847Z,16.50
2019-01-12T14:23:00.670Z,16.20
2019-01-12T14:25:31.513Z,16.30
2019-01-12T14:28:01.296Z,16.10
2019-01-12T14:30:31.083Z,16.30
2019-01-12T14:33:00.804Z,16.40
2019-01-12T14:35:30.534Z,16.20
2019-01-12T14:38:00.369Z,16.70
2019-01-12T14:40:30.505Z,15.90
2019-01-12T14:43:00.557Z,16.10
2019-01-12T14:45:31.591Z,15.90
2019-01-12T14:48:01.537Z,16.20
2019-01-12T14:50:31.460Z,15.60
2019-01-12T14:53:01.185Z,16.50
2019-01-12T14:55:31.024Z,16.20
2019-01-12T14:58:03.018Z,16.20
2019-01-12T15:00:33.027Z,16.00
2019-01-12T15:03:02.674Z,16.20
2019-01-12T15:05:33.492Z,16.60
2019-01-12T15:08:03.133Z,15.70
2019-01-12T15:10:32.756Z,15.50
2019-01-12T15:13:02.584Z,15.40
2019-01-12T15:15:32.504Z,15.30
2019-01-12T15:18:02.360Z,15.30
2019-01-12T15:20:32.388Z,15.10
2019-01-12T15:23:02.317Z,15.10
2019-01-12T15:25:32.038Z,15.00
2019-01-12T15:28:08.742Z,15.30
2019-01-12T15:30:33.229Z,15.60
2019-01-12T15:33:05.439Z,15.00
2019-01-12T15:35:35.968Z,15.10
2019-01-12T15:38:05.801Z,15.40
2019-01-12T15:40:35.616Z,15.40
2019-01-12T15:43:05.252Z,15.00
2019-01-12T15:45:35.177Z,15.10
2019-01-12T15:48:05.012Z,15.50
2019-01-12T15:50:34.725Z,14.90
2019-01-12T15:53:04.553Z,14.90
2019-01-12T15:55:34.387Z,14.90
2019-01-12T15:58:04.513Z,15.40
2019-01-12T16:00:34.168Z,15.90
2019-01-12T16:03:04.206Z,15.50
2019-01-12T16:05:34.125Z,15.30
2019-01-12T16:08:03.959Z,15.50
2019-01-12T16:10:33.771Z,15.70
2019-01-12T16:13:03.480Z,15.50
2019-01-12T16:15:33.448Z,15.30
2019-01-12T16:18:03.058Z,15.30
2019-01-12T16:20:40.275Z,15.40
2019-01-12T16:23:11.057Z,15.30
2019-01-12T16:25:40.941Z,15.20
2019-01-12T16:28:10.780Z,15.20
2019-01-12T16:30:40.417Z,15.10
2019-01-12T16:33:10.116Z,15.10
2019-01-12T16:35:39.957Z,15.40
2019-01-12T16:38:09.881Z,15.70
2019-01-12T16:40:39.525Z,15.30
2019-01-12T16:43:09.332Z,15.50
2019-01-12T16:45:39.150Z,15.10
2019-01-12T16:48:08.880Z,15.20
2019-01-12T16:50:38.728Z,15.20
2019-01-12T16:53:08.755Z,15.10
2019-01-12T16:55:38.593Z,15.20
2019-01-12T16:58:08.615Z,15.60
2019-01-12T17:00:38.350Z,15.70
2019-01-12T17:03:08.280Z,15.70
2019-01-12T17:05:38.213Z,15.80
2019-01-12T17:08:07.846Z,15.50
2019-01-12T17:10:37.594Z,15.30
2019-01-12T17:13:07.488Z,15.30
2019-01-12T17:15:37.338Z,15.20
2019-01-12T17:18:07.153Z,15.40
2019-01-12T17:20:37.079Z,15.20
2019-01-12T17:23:07.223Z,15.40
2019-01-12T17:25:36.951Z,15.30
2019-01-12T17:28:06.674Z,14.80
2019-01-12T17:30:36.495Z,14.80
2019-01-12T17:33:06.349Z,14.60
2019-01-12T17:35:36.172Z,14.00
2019-01-12T17:38:06.829Z,14.50
2019-01-12T17:40:36.430Z,14.50
2019-01-12T17:43:06.272Z,14.60
2019-01-12T17:45:36.094Z,14.50
2019-01-12T17:48:05.821Z,14.40
2019-01-12T17:50:36.461Z,14.40
2019-01-12T17:53:06.399Z,14.40
2019-01-12T17:55:36.238Z,15.00
2019-01-12T17:58:06.057Z,14.30
2019-01-12T18:00:49.299Z,14.30
2019-01-12T18:03:19.118Z,14.20
2019-01-12T18:05:49.015Z,14.20
2019-01-12T18:08:18.472Z,14.20
2019-01-12T18:10:48.314Z,14.20
2019-01-12T18:13:18.235Z,14.20
2019-01-12T18:15:48.177Z,14.20
2019-01-12T18:18:17.992Z,14.20
2019-01-12T18:20:47.828Z,14.30
2019-01-12T18:23:17.625Z,13.80
2019-01-12T18:25:47.177Z,14.60
2019-01-12T18:28:16.700Z,14.60
2019-01-12T18:30:46.750Z,14.70
2019-01-12T18:33:16.658Z,14.60
2019-01-12T18:35:46.507Z,14.90
2019-01-12T18:38:16.324Z,14.70
2019-01-12T18:40:46.171Z,14.80
2019-01-12T18:43:16.089Z,14.20
2019-01-12T18:45:45.612Z,14.60
2019-01-12T18:48:15.424Z,14.50
2019-01-12T18:50:45.595Z,14.50
2019-01-12T18:53:15.390Z,14.50
2019-01-12T18:55:45.246Z,14.60
2019-01-12T18:58:15.048Z,14.50
2019-01-12T19:00:44.914Z,14.50
2019-01-12T19:03:14.722Z,14.50
2019-01-12T19:05:44.462Z,14.50
2019-01-12T19:08:14.376Z,14.60
2019-01-12T19:10:44.212Z,14.40
2019-01-12T19:13:13.835Z,14.30
2019-01-12T19:15:43.655Z,14.50
2019-01-12T19:18:13.263Z,14.70
2019-01-12T19:20:43.016Z,14.80
2019-01-12T19:23:14.081Z,14.80
2019-01-12T19:25:43.811Z,15.20
2019-01-12T19:28:13.737Z,15.00
2019-01-12T19:30:43.785Z,14.90
2019-01-12T19:33:13.692Z,14.90
2019-01-12T19:35:43.678Z,14.70
2019-01-12T19:38:13.465Z,14.70
2019-01-12T19:40:43.193Z,14.80
2019-01-12T19:43:13.021Z,15.20
2019-01-12T19:45:42.747Z,14.90
2019-01-12T19:48:12.673Z,14.80
2019-01-12T19:50:42.572Z,15.10
2019-01-12T19:53:12.428Z,14.70
2019-01-12T19:55:42.454Z,14.80
2019-01-12T19:58:12.272Z,14.70
2019-01-12T20:00:41.932Z,15.00
2019-01-12T20:03:13.810Z,14.90
2019-01-12T20:05:43.746Z,15.20
2019-01-12T20:08:13.668Z,15.20
2019-01-12T20:10:43.596Z,15.20
2019-01-12T20:13:13.520Z,15.10
2019-01-12T20:15:43.461Z,15.10
2019-01-12T20:18:13.282Z,15.00
2019-01-12T20:20:43.227Z,15.50
2019-01-12T20:23:13.166Z,15.50
2019-01-12T20:25:42.982Z,15.30
2019-01-12T20:28:15.460Z,15.30
2019-01-12T20:31:47.229Z,16.10
2019-01-12T20:34:33.623Z,15.40
2019-01-12T20:37:58.222Z,15.60
2019-01-12T20:40:57.258Z,15.30
2019-01-12T20:43:38.980Z,16.30
2019-01-12T20:46:40.524Z,16.50
2019-01-12T20:49:33.868Z,16.20
2019-01-12T20:52:29.392Z,16.10
2019-01-12T20:55:35.457Z,16.30
2019-01-12T20:58:58.507Z,16.30
2019-01-12T21:02:24.322Z,16.30
2019-01-12T21:05:22.165Z,16.30
2019-01-12T21:08:19.770Z,16.30
2019-01-12T21:11:21.019Z,16.60
2019-01-12T21:14:27.075Z,16.20
2019-01-12T21:17:03.339Z,16.20
2019-01-12T21:19:34.655Z,16.00
2019-01-12T21:22:04.536Z,15.90
2019-01-12T21:24:34.464Z,15.90
2019-01-12T21:27:04.306Z,15.90
2019-01-12T21:29:35.236Z,16.40
2019-01-12T21:32:05.300Z,16.00
2019-01-12T21:34:35.494Z,16.20
2019-01-12T21:37:05.229Z,16.10
2019-01-12T21:39:35.068Z,16.00
2019-01-12T21:42:04.904Z,14.60
2019-01-12T21:44:34.843Z,14.90
2019-01-12T21:47:04.456Z,15.00
2019-01-12T21:49:34.290Z,15.10
2019-01-12T21:52:04.201Z,14.90
2019-01-12T21:54:33.987Z,14.90
2019-01-12T21:57:03.829Z,14.90
2019-01-12T21:59:33.763Z,14.70
2019-01-12T22:02:03.712Z,15.00
2019-01-12T22:04:33.434Z,14.50
2019-01-12T22:07:03.340Z,15.00
2019-01-12T22:09:33.100Z,14.40
2019-01-12T22:12:02.898Z,14.20
2019-01-12T22:14:32.831Z,14.10
2019-01-12T22:17:02.666Z,14.00
2019-01-12T22:19:32.498Z,14.00
2019-01-12T22:22:02.235Z,13.90
2019-01-12T22:24:32.000Z,13.90
2019-01-12T22:27:01.791Z,13.60
2019-01-12T22:29:31.709Z,13.60
2019-01-12T22:32:01.540Z,13.50
2019-01-12T22:34:31.291Z,13.80
2019-01-12T22:37:01.101Z,13.30
2019-01-12T22:39:30.944Z,13.20
2019-01-12T22:42:00.550Z,13.10
2019-01-12T22:44:30.508Z,13.10
2019-01-12T22:47:02.013Z,13.10
2019-01-12T22:49:31.766Z,13.10
2019-01-12T22:52:01.612Z,13.10
2019-01-12T22:54:31.340Z,13.10
2019-01-12T22:57:01.260Z,13.60
2019-01-12T22:59:30.801Z,13.10
2019-01-12T23:02:02.540Z,13.00
2019-01-12T23:04:32.807Z,13.40
2019-01-12T23:07:11.101Z,12.70
2019-01-12T23:09:33.905Z,12.90
2019-01-12T23:12:03.819Z,12.60
2019-01-12T23:14:33.447Z,12.70
2019-01-12T23:17:03.377Z,12.60
2019-01-12T23:19:33.108Z,12.60
2019-01-12T23:22:03.049Z,13.20
2019-01-12T23:24:32.975Z,12.90
2019-01-12T23:27:02.904Z,12.40
2019-01-12T23:29:32.941Z,12.70
2019-01-12T23:32:02.783Z,12.40
2019-01-12T23:34:32.492Z,12.40
2019-01-12T23:37:02.335Z,12.20
2019-01-12T23:39:32.254Z,12.20
2019-01-12T23:42:02.099Z,12.10
2019-01-12T23:44:31.906Z,12.20
2019-01-12T23:47:01.757Z,12.10
2019-01-12T23:49:31.662Z,12.00
2019-01-12T23:52:02.317Z,12.00
2019-01-12T23:54:34.257Z,11.90
2019-01-12T23:57:04.447Z,11.90
2019-01-12T23:59:34.163Z,11.80
